Time;durP1;ratioP1;P1;durP2;ratioP2;P2;SDS_P1;SDS_P2;PMS_P1;PMS_P2;Temp;Humidity;BMP_temperature;BMP_pressure;BME280_temperature;BME280_humidity;BME280_pressure;Samples;Min_cycle;Max_cycle;Signal;HPM_P1;HPM_P2
2022/10/11 00:00:12;;;;;;;14.82;2.35;;;;;;;11.01;50.74;102265.53;7395191;19;20007;-57
2022/10/11 00:02:45;;;;;;;13.55;2.60;;;;;;;10.98;51.12;102272.41;7395931;19;20006;-58
2022/10/11 00:05:10;;;;;;;17.33;2.45;;;;;;;10.88;51.06;102267.97;7394953;19;20021;-58
2022/10/11 00:07:37;;;;;;;13.82;2.97;;;;;;;10.92;50.85;102270.88;7394772;19;20062;-58
2022/10/11 00:10:04;;;;;;;14.40;3.08;;;;;;;10.89;50.96;102277.00;7393583;19;20027;-58
2022/10/11 00:12:30;;;;;;;15.43;3.08;;;;;;;10.87;50.84;102277.28;7394979;19;20007;-58
2022/10/11 00:14:56;;;;;;;18.25;2.72;;;;;;;10.88;50.93;102273.44;7395698;19;20107;-58
2022/10/11 00:17:21;;;;;;;13.52;3.08;;;;;;;10.84;51.11;102277.09;7395543;19;20312;-58
2022/10/11 00:19:47;;;;;;;14.27;2.92;;;;;;;10.74;51.35;102273.44;7395801;19;20032;-58
2022/10/11 00:22:13;;;;;;;14.85;2.30;;;;;;;10.80;51.23;102281.53;7395766;19;20381;-58
2022/10/11 00:24:38;;;;;;;11.82;2.55;;;;;;;10.92;51.16;102290.84;7394628;19;20235;-58
2022/10/11 00:27:10;;;;;;;12.60;2.58;;;;;;;10.88;51.24;102289.81;7392679;19;20002;-58
2022/10/11 00:29:37;;;;;;;18.80;3.13;;;;;;;10.77;51.38;102296.63;7391309;19;20038;-57
2022/10/11 00:32:03;;;;;;;15.13;2.58;;;;;;;10.77;51.58;102293.91;7395539;19;20083;-58
2022/10/11 00:34:28;;;;;;;14.57;2.30;;;;;;;10.87;51.00;102303.78;7395075;19;20006;-57
2022/10/11 00:36:54;;;;;;;17.35;2.60;;;;;;;10.85;51.37;102300.56;7392778;19;20434;-57
2022/10/11 00:39:19;;;;;;;13.75;2.65;;;;;;;10.79;51.09;102312.72;7392945;19;20345;-57
2022/10/11 00:41:46;;;;;;;14.00;2.35;;;;;;;10.76;51.40;102313.34;7395015;19;20478;-57
2022/10/11 00:44:22;;;;;;;12.40;2.85;;;;;;;10.67;51.76;102310.47;7394844;19;19998;-57
2022/10/11 00:46:52;;;;;;;16.75;2.58;;;;;;;10.67;51.68;102311.28;7394172;19;20033;-58
2022/10/11 00:49:41;;;;;;;12.77;2.65;;;;;;;10.69;51.22;102311.78;7393426;19;20005;-59
2022/10/11 00:52:21;;;;;;;16.05;2.60;;;;;;;10.66;51.55;102298.72;7394247;19;20002;-58
2022/10/11 00:54:48;;;;;;;15.20;2.17;;;;;;;10.66;51.55;102308.84;7394506;19;20018;-57
2022/10/11 00:57:18;;;;;;;14.05;2.78;;;;;;;10.73;51.28;102314.72;7394248;19;20040;-58
2022/10/11 00:59:49;;;;;;;15.60;2.95;;;;;;;10.65;51.49;102313.53;7394248;19;19994;-57
2022/10/11 01:02:17;;;;;;;11.40;2.47;;;;;;;10.67;51.32;102313.19;7394751;19;20006;-58
2022/10/11 01:04:43;;;;;;;16.33;2.63;;;;;;;10.66;51.53;102315.13;7394254;19;19999;-58
2022/10/11 01:07:09;;;;;;;11.80;2.10;;;;;;;10.66;51.41;102317.84;7394293;19;20474;-58
2022/10/11 01:09:35;;;;;;;15.48;2.55;;;;;;;10.69;51.12;102314.50;7392382;19;19995;-57
2022/10/11 01:12:05;;;;;;;13.95;2.85;;;;;;;10.65;51.15;102316.25;7391976;19;20359;-58
2022/10/11 01:14:55;;;;;;;14.80;2.50;;;;;;;10.66;51.16;102311.59;7394173;19;20003;-58
2022/10/11 01:17:28;;;;;;;9.90;2.13;;;;;;;10.54;51.46;102312.09;7390379;19;20066;-58
2022/10/11 01:20:25;;;;;;;16.50;2.75;;;;;;;10.52;51.48;102319.78;7393666;19;20040;-58
2022/10/11 01:23:18;;;;;;;21.50;3.75;;;;;;;10.59;51.56;102312.00;7391526;19;20006;-58
2022/10/11 01:26:10;;;;;;;11.88;2.78;;;;;;;10.50;51.46;102316.53;7393902;19;20239;-58
2022/10/11 01:28:38;;;;;;;12.25;2.45;;;;;;;10.52;51.39;102314.34;7391772;19;20022;-57
2022/10/11 01:31:18;;;;;;;12.90;2.80;;;;;;;10.46;51.68;102326.47;7389527;19;20302;-57
2022/10/11 01:33:57;;;;;;;15.32;2.90;;;;;;;10.46;51.62;102326.47;7392331;19;20006;-58
2022/10/11 01:36:32;;;;;;;12.25;2.70;;;;;;;10.48;51.60;102329.69;7393417;19;20005;-58
2022/10/11 01:39:32;;;;;;;13.85;2.53;;;;;;;10.49;51.81;102336.78;7392642;19;20011;-58
2022/10/11 01:42:01;;;;;;;13.77;2.50;;;;;;;10.57;51.43;102333.34;7393397;19;20054;-57
2022/10/11 01:44:29;;;;;;;14.30;2.78;;;;;;;10.60;51.04;102335.44;7391866;19;20012;-58
2022/10/11 01:46:54;;;;;;;13.00;2.40;;;;;;;10.54;51.46;102333.94;7392241;19;20019;-59
2022/10/11 01:49:20;;;;;;;14.32;2.50;;;;;;;10.52;51.52;102334.25;7391987;19;19998;-58
2022/10/11 01:51:49;;;;;;;15.73;3.38;;;;;;;10.58;51.11;102329.47;7392640;19;19995;-58
2022/10/11 01:54:21;;;;;;;13.55;2.65;;;;;;;10.56;51.30;102331.72;7392542;19;19999;-58
2022/10/11 01:57:09;;;;;;;17.55;2.78;;;;;;;10.47;51.78;102333.53;7392069;19;19998;-59
2022/10/11 01:59:57;;;;;;;12.90;2.50;;;;;;;10.53;51.40;102345.97;7390039;19;20010;-58
2022/10/11 02:02:46;;;;;;;17.67;2.78;;;;;;;10.50;51.48;102343.84;7390610;19;20035;-59
2022/10/11 02:05:14;;;;;;;17.38;2.47;;;;;;;10.41;51.40;102346.47;7391108;19;20029;-58
2022/10/11 02:07:59;;;;;;;12.88;2.60;;;;;;;10.36;51.72;102352.03;7391482;19;19998;-58
2022/10/11 02:10:32;;;;;;;15.38;2.85;;;;;;;10.40;51.53;102355.75;7390517;19;20006;-59
2022/10/11 02:13:10;;;;;;;12.23;2.88;;;;;;;10.47;51.35;102345.28;7391378;19;20477;-59
2022/10/11 02:15:39;;;;;;;11.35;2.28;;;;;;;10.41;51.40;102353.84;7390304;19;20340;-60
2022/10/11 02:18:14;;;;;;;10.18;2.55;;;;;;;10.42;51.44;102353.56;7388929;19;20469;-59
2022/10/11 02:20:42;;;;;;;15.23;2.60;;;;;;;10.38;51.28;102358.81;7390198;19;19995;-58
2022/10/11 02:23:22;;;;;;;13.00;3.45;;;;;;;10.28;51.58;102358.97;7389195;19;20462;-58
2022/10/11 02:25:49;;;;;;;15.73;3.50;;;;;;;10.30;51.45;102362.25;7392056;19;19998;-58
2022/10/11 02:28:20;;;;;;;17.10;3.08;;;;;;;10.28;51.43;102358.97;7389018;19;20018;-59
2022/10/11 02:30:49;;;;;;;13.45;3.20;;;;;;;10.32;51.62;102362.75;7387837;19;20070;-59
2022/10/11 02:33:20;;;;;;;13.18;2.45;;;;;;;10.26;51.37;102361.22;7390811;19;20451;-58
2022/10/11 02:35:53;;;;;;;15.65;2.70;;;;;;;10.22;51.64;102370.28;7392616;19;19999;-58
2022/10/11 02:38:49;;;;;;;13.77;3.08;;;;;;;10.17;51.76;102363.84;7389371;19;20019;-58
2022/10/11 02:41:20;;;;;;;14.88;2.65;;;;;;;10.11;51.79;102369.69;7391150;19;20038;-59
2022/10/11 02:43:58;;;;;;;12.77;2.50;;;;;;;10.08;51.76;102375.72;7391444;19;20002;-58
2022/10/11 02:46:26;;;;;;;14.80;2.58;;;;;;;10.22;51.73;102382.03;7389470;19;20003;-58
2022/10/11 02:48:52;;;;;;;14.68;2.50;;;;;;;10.20;51.48;102378.78;7387477;19;20605;-58
2022/10/11 02:51:17;;;;;;;14.57;2.33;;;;;;;10.18;51.44;102391.91;7389383;19;20335;-58
2022/10/11 02:53:43;;;;;;;16.63;3.25;;;;;;;10.11;51.84;102386.84;7391160;19;20003;-58
2022/10/11 02:56:08;;;;;;;12.30;2.42;;;;;;;10.11;51.65;102386.84;7390953;19;20353;-58
2022/10/11 02:58:43;;;;;;;15.52;2.92;;;;;;;10.04;51.76;102386.44;7387370;19;20022;-58
2022/10/11 03:01:09;;;;;;;16.98;3.03;;;;;;;10.12;51.83;102387.69;7389227;19;20010;-57
2022/10/11 03:03:35;;;;;;;15.27;2.65;;;;;;;10.06;51.88;102383.41;7390222;19;20006;-58
2022/10/11 03:06:02;;;;;;;15.60;3.05;;;;;;;10.04;51.84;102391.09;7391492;19;20079;-58
2022/10/11 03:08:28;;;;;;;12.68;3.15;;;;;;;10.03;51.77;102395.72;7389143;19;20011;-58
2022/10/11 03:10:53;;;;;;;12.77;3.08;;;;;;;10.15;51.58;102395.25;7387294;19;19998;-58
2022/10/11 03:13:19;;;;;;;13.85;2.55;;;;;;;10.19;51.51;102401.72;7388544;19;20469;-58
2022/10/11 03:15:51;;;;;;;13.02;2.72;;;;;;;10.10;51.71;102407.06;7388626;19;20035;-58
2022/10/11 03:18:16;;;;;;;13.07;2.58;;;;;;;10.16;51.34;102408.59;7388362;19;20379;-59
2022/10/11 03:20:42;;;;;;;12.43;2.72;;;;;;;10.11;51.68;102405.16;7389172;19;20058;-58
2022/10/11 03:23:09;;;;;;;15.98;2.80;;;;;;;10.09;51.67;102402.72;7388949;19;20016;-58
2022/10/11 03:25:35;;;;;;;13.38;2.42;;;;;;;10.07;51.67;102418.56;7390249;19;20040;-58
2022/10/11 03:28:01;;;;;;;16.80;2.60;;;;;;;10.06;51.75;102416.16;7387501;19;20029;-58
2022/10/11 03:30:33;;;;;;;19.98;2.72;;;;;;;10.10;51.74;102412.53;7387575;19;20073;-58
2022/10/11 03:33:06;;;;;;;13.65;2.85;;;;;;;10.08;51.59;102413.91;7389492;19;20038;-58
2022/10/11 03:35:31;;;;;;;12.10;2.65;;;;;;;10.09;51.61;102413.63;7390210;19;20021;-58
2022/10/11 03:37:57;;;;;;;11.93;2.40;;;;;;;10.07;51.37;102417.75;7386154;19;20107;-59
2022/10/11 03:40:22;;;;;;;15.38;2.72;;;;;;;10.07;51.58;102415.84;7390281;19;19995;-58
2022/10/11 03:42:48;;;;;;;13.90;2.75;;;;;;;10.04;51.55;102410.19;7395836;19;19994;-58
2022/10/11 03:45:13;;;;;;;13.13;2.70;;;;;;;9.96;51.69;102417.13;7396685;19;20010;-58
2022/10/11 03:47:39;;;;;;;10.57;2.25;;;;;;;10.01;51.32;102420.56;7396519;19;20451;-58
2022/10/11 03:50:07;;;;;;;12.68;2.35;;;;;;;10.01;51.36;102420.56;7392974;19;19991;-58
2022/10/11 03:52:32;;;;;;;17.95;3.05;;;;;;;10.03;51.34;102427.66;7394885;19;20026;-58
2022/10/11 03:54:58;;;;;;;13.55;2.50;;;;;;;10.07;51.25;102423.19;7394770;19;19995;-58
2022/10/11 03:57:24;;;;;;;13.90;2.85;;;;;;;10.04;51.24;102429.28;7395301;19;20539;-59
2022/10/11 03:59:49;;;;;;;17.23;2.75;;;;;;;10.00;51.42;102435.31;7396217;19;20006;-58
2022/10/11 04:02:15;;;;;;;14.50;2.92;;;;;;;9.97;51.26;102432.38;7396243;19;20477;-58
2022/10/11 04:04:41;;;;;;;14.13;2.95;;;;;;;9.96;51.27;102436.22;7396163;19;20510;-59
2022/10/11 04:07:06;;;;;;;12.60;2.55;;;;;;;10.07;51.18;102442.28;7396494;19;20005;-58
2022/10/11 04:09:32;;;;;;;15.60;3.08;;;;;;;10.00;51.13;102440.78;7392339;19;20062;-59
2022/10/11 04:11:58;;;;;;;15.35;2.55;;;;;;;9.89;51.62;102433.84;7395965;19;20383;-59
2022/10/11 04:14:23;;;;;;;12.68;2.72;;;;;;;9.93;51.64;102440.31;7396150;19;20494;-59
2022/10/11 04:16:49;;;;;;;10.82;2.90;;;;;;;10.04;51.45;102442.91;7394932;19;20329;-59
2022/10/11 04:19:14;;;;;;;13.60;2.70;;;;;;;9.93;51.57;102455.91;7394635;19;20525;-59
2022/10/11 04:21:40;;;;;;;14.40;3.03;;;;;;;9.95;51.38;102454.50;7393765;19;20483;-58
2022/10/11 04:24:06;;;;;;;13.30;2.63;;;;;;;9.94;51.42;102450.16;7395714;19;20455;-59
2022/10/11 04:26:31;;;;;;;12.75;2.38;;;;;;;9.94;51.20;102463.78;7393545;19;20095;-59
2022/10/11 04:28:57;;;;;;;11.02;2.40;;;;;;;10.04;51.25;102470.19;7394703;19;20005;-59
2022/10/11 04:31:22;;;;;;;15.98;3.00;;;;;;;9.89;51.55;102469.31;7392975;19;20489;-58
2022/10/11 04:33:48;;;;;;;13.23;2.42;;;;;;;10.00;51.27;102483.59;7394828;19;20474;-59
2022/10/11 04:36:14;;;;;;;14.70;2.63;;;;;;;10.03;51.27;102477.56;7395691;19;20019;-59
2022/10/11 04:38:40;;;;;;;10.07;2.95;;;;;;;9.98;51.17;102477.63;7391790;19;19994;-58
2022/10/11 04:41:11;;;;;;;15.80;2.78;;;;;;;9.95;51.12;102486.41;7395125;19;19991;-59
2022/10/11 04:43:36;;;;;;;13.20;2.65;;;;;;;9.88;51.22;102488.69;7393719;19;20006;-59
2022/10/11 04:46:03;;;;;;;11.13;2.42;;;;;;;9.90;51.43;102483.75;7392504;19;20474;-59
2022/10/11 04:48:28;;;;;;;14.77;3.00;;;;;;;9.94;51.19;102485.59;7391420;19;19994;-58
2022/10/11 04:50:54;;;;;;;12.65;2.50;;;;;;;9.95;51.00;102489.97;7390734;19;20001;-58
2022/10/11 04:53:20;;;;;;;15.48;2.85;;;;;;;9.81;51.57;102497.25;7390175;19;20011;-59
2022/10/11 04:56:00;;;;;;;15.32;2.63;;;;;;;9.95;51.15;102495.41;7394264;19;19998;-58
2022/10/11 04:58:27;;;;;;;12.55;2.75;;;;;;;10.01;50.92;102496.94;7393050;19;19995;-59
2022/10/11 05:00:53;;;;;;;15.90;3.13;;;;;;;9.97;50.94;102497.84;7392188;19;19999;-58
2022/10/11 05:03:18;;;;;;;13.13;2.63;;;;;;;9.93;50.95;102505.78;7393272;19;20030;-58
2022/10/11 05:05:44;;;;;;;17.98;3.40;;;;;;;9.87;51.10;102507.00;7394396;19;20002;-58
2022/10/11 05:08:10;;;;;;;11.88;2.95;;;;;;;9.87;51.26;102507.00;7391930;19;20002;-58
2022/10/11 05:10:35;;;;;;;12.15;3.13;;;;;;;9.93;51.26;102513.16;7391192;19;19999;-58
2022/10/11 05:13:01;;;;;;;12.35;2.65;;;;;;;9.83;51.32;102514.13;7391987;19;20463;-57
2022/10/11 05:15:26;;;;;;;17.08;3.00;;;;;;;9.81;51.34;102510.88;7391995;19;20404;-58
2022/10/11 05:17:52;;;;;;;17.58;2.90;;;;;;;9.71;51.67;102517.28;7389151;19;20676;-57
2022/10/11 05:20:18;;;;;;;16.90;3.03;;;;;;;9.66;51.78;102522.81;7390705;19;20467;-59
2022/10/11 05:22:43;;;;;;;18.40;2.92;;;;;;;9.69;51.61;102521.44;7393249;19;19998;-58
2022/10/11 05:25:09;;;;;;;18.20;3.05;;;;;;;9.71;51.36;102519.22;7392535;19;20013;-59
2022/10/11 05:27:34;;;;;;;14.50;2.75;;;;;;;9.67;51.51;102521.72;7393048;19;19998;-59
2022/10/11 05:30:00;;;;;;;14.00;3.13;;;;;;;9.61;51.46;102531.88;7391027;19;20534;-59
2022/10/11 05:32:26;;;;;;;15.05;2.58;;;;;;;9.67;51.71;102537.25;7391470;19;19999;-59
2022/10/11 05:34:51;;;;;;;13.00;2.72;;;;;;;9.74;51.20;102524.88;7392930;19;20062;-59
2022/10/11 05:37:18;;;;;;;15.48;2.95;;;;;;;9.76;51.07;102524.59;7391914;19;20106;-59
2022/10/11 05:39:45;;;;;;;14.27;2.88;;;;;;;9.76;51.19;102527.31;7391862;19;20079;-59
2022/10/11 05:42:11;;;;;;;11.88;3.10;;;;;;;9.57;51.72;102536.25;7392425;19;20414;-59
2022/10/11 05:44:36;;;;;;;16.23;3.28;;;;;;;9.63;51.46;102542.47;7392553;19;20032;-59
2022/10/11 05:47:02;;;;;;;9.90;2.80;;;;;;;9.73;51.27;102547.00;7364801;19;20034;-59
2022/10/11 05:49:28;;;;;;;13.48;2.63;;;;;;;9.65;51.59;102540.28;7393526;19;20086;-59
2022/10/11 05:51:53;;;;;;;13.15;3.17;;;;;;;9.66;51.31;102549.28;7392589;19;19990;-59
2022/10/11 05:54:19;;;;;;;13.25;2.92;;;;;;;9.70;51.31;102544.84;7391862;19;20030;-59
2022/10/11 05:56:44;;;;;;;12.73;2.95;;;;;;;9.73;51.16;102549.72;7391118;19;20010;-59
2022/10/11 05:59:10;;;;;;;12.90;3.03;;;;;;;9.72;51.04;102553.56;7392469;19;20086;-59
2022/10/11 06:01:35;;;;;;;14.00;3.08;;;;;;;9.66;51.14;102560.19;7390132;19;20023;-58
2022/10/11 06:04:01;;;;;;;20.73;3.25;;;;;;;9.75;50.85;102558.41;7390611;19;20001;-59
2022/10/11 06:06:27;;;;;;;17.13;3.17;;;;;;;9.72;51.07;102561.75;7391898;19;20003;-59
2022/10/11 06:08:52;;;;;;;10.93;3.13;;;;;;;9.74;51.03;102562.25;7388819;19;20070;-59
2022/10/11 06:11:24;;;;;;;16.20;3.22;;;;;;;9.81;50.77;102568.16;7391876;19;20087;-59
2022/10/11 06:13:52;;;;;;;15.68;2.90;;;;;;;9.74;51.08;102567.72;7392042;19;20003;-59
2022/10/11 06:16:18;;;;;;;12.75;2.72;;;;;;;9.69;51.10;102565.06;7390728;19;20013;-59
2022/10/11 06:18:44;;;;;;;14.52;3.17;;;;;;;9.69;51.23;102568.59;7389988;19;20007;-59
2022/10/11 06:21:09;;;;;;;17.65;3.40;;;;;;;9.68;51.31;102583.31;7392010;19;20003;-59
2022/10/11 06:23:35;;;;;;;13.68;2.53;;;;;;;9.74;51.13;102586.81;7391586;19;20018;-58
2022/10/11 06:26:04;;;;;;;16.58;2.60;;;;;;;9.71;51.13;102592.84;7390439;19;20011;-58
2022/10/11 06:28:30;;;;;;;15.32;3.17;;;;;;;9.76;50.81;102592.78;7388582;19;20011;-59
2022/10/11 06:30:56;;;;;;;15.02;3.20;;;;;;;9.81;50.79;102590.78;7389466;19;20014;-59
2022/10/11 06:33:23;;;;;;;15.43;2.72;;;;;;;9.73;50.70;102594.16;7390317;19;20013;-58
2022/10/11 06:35:49;;;;;;;14.70;3.05;;;;;;;9.84;51.03;102597.56;7390720;19;20126;-59
2022/10/11 06:38:15;;;;;;;14.63;3.15;;;;;;;9.83;50.72;102595.94;7389069;19;20012;-59
2022/10/11 06:40:41;;;;;;;12.73;3.13;;;;;;;9.83;50.90;102598.66;7390477;19;19991;-59
2022/10/11 06:43:06;;;;;;;14.65;2.90;;;;;;;9.80;50.91;102600.09;7391654;19;20323;-59
2022/10/11 06:45:32;;;;;;;16.90;3.15;;;;;;;9.80;50.80;102601.97;7390478;19;20332;-59
2022/10/11 06:47:57;;;;;;;10.98;3.10;;;;;;;9.85;50.97;102601.09;7390033;19;19991;-58
2022/10/11 06:50:23;;;;;;;11.63;2.88;;;;;;;9.81;51.02;102607.13;7386888;19;20044;-59
2022/10/11 06:52:48;;;;;;;12.98;2.90;;;;;;;9.80;51.03;102610.16;7342137;19;20375;-59
2022/10/11 06:55:14;;;;;;;9.82;2.47;;;;;;;9.89;50.79;102613.06;7392956;19;20338;-59
2022/10/11 06:57:40;;;;;;;12.70;3.08;;;;;;;9.94;50.49;102608.34;7390463;19;20026;-59
2022/10/11 07:00:06;;;;;;;13.95;3.40;;;;;;;9.91;50.49;102617.13;7389784;19;20336;-59
2022/10/11 07:02:31;;;;;;;17.15;3.08;;;;;;;9.91;50.71;102611.66;7391083;19;20037;-59
2022/10/11 07:04:57;;;;;;;11.65;3.00;;;;;;;10.01;50.51;102610.72;7390099;19;20296;-59
2022/10/11 07:07:23;;;;;;;14.40;3.47;;;;;;;10.03;50.27;102615.88;7389496;19;19998;-59
2022/10/11 07:09:48;;;;;;;12.02;3.42;;;;;;;10.06;50.28;102620.75;7389133;19;19998;-59
2022/10/11 07:12:15;;;;;;;15.75;3.35;;;;;;;10.07;50.29;102625.94;7390598;19;20088;-59
2022/10/11 07:14:40;;;;;;;14.88;3.08;;;;;;;10.11;50.15;102621.50;7391019;19;20107;-59
2022/10/11 07:17:06;;;;;;;13.93;2.88;;;;;;;10.01;50.47;102635.28;7395554;19;19999;-59
2022/10/11 07:19:31;;;;;;;12.50;2.78;;;;;;;10.07;50.57;102627.81;7397481;19;20006;-59
2022/10/11 07:21:57;;;;;;;14.90;2.83;;;;;;;10.17;49.85;102638.63;7397133;19;20013;-59
2022/10/11 07:24:22;;;;;;;13.82;3.05;;;;;;;10.21;50.07;102636.13;7397236;19;20013;-59
2022/10/11 07:26:48;;;;;;;16.35;3.60;;;;;;;10.25;49.96;102650.78;7397398;19;20019;-60
2022/10/11 07:29:13;;;;;;;11.95;2.80;;;;;;;10.27;50.27;102643.94;7394455;19;19994;-59
2022/10/11 07:31:40;;;;;;;11.35;3.90;;;;;;;10.32;50.18;102654.78;7393494;19;20034;-60
2022/10/11 07:34:07;;;;;;;11.20;3.53;;;;;;;10.27;50.34;102643.94;7397447;19;20022;-59
2022/10/11 07:36:32;;;;;;;12.30;2.88;;;;;;;10.45;49.85;102646.94;7396661;19;20006;-60
2022/10/11 07:38:58;;;;;;;11.70;3.00;;;;;;;10.45;49.76;102652.41;7395121;19;20010;-59
2022/10/11 07:41:24;;;;;;;13.52;3.45;;;;;;;10.42;49.90;102645.63;7397367;19;20015;-59
2022/10/11 07:43:49;;;;;;;16.00;3.38;;;;;;;10.41;49.81;102649.47;7396372;19;20009;-59
2022/10/11 07:46:16;;;;;;;15.55;3.88;;;;;;;10.49;49.64;102648.00;7397374;19;19991;-59
2022/10/11 07:48:42;;;;;;;16.50;3.28;;;;;;;10.44;50.04;102654.34;7392992;19;20002;-59
2022/10/11 07:51:14;;;;;;;15.60;3.05;;;;;;;10.46;49.87;102643.94;7392365;19;19999;-59
2022/10/11 07:53:42;;;;;;;10.20;3.00;;;;;;;10.55;49.73;102649.53;7395410;19;19998;-59
2022/10/11 07:56:09;;;;;;;10.40;2.90;;;;;;;10.56;49.63;102651.16;7396147;19;20006;-59
2022/10/11 07:58:34;;;;;;;16.38;3.00;;;;;;;10.61;49.67;102661.19;7393344;19;20006;-58
2022/10/11 08:01:00;;;;;;;17.33;3.35;;;;;;;10.68;49.65;102656.97;7396381;19;20006;-58
2022/10/11 08:03:25;;;;;;;16.42;3.72;;;;;;;10.76;49.48;102657.47;7394231;19;20378;-59
2022/10/11 08:05:51;;;;;;;14.60;3.75;;;;;;;10.81;49.63;102663.66;7395562;19;19999;-58
2022/10/11 08:08:17;;;;;;;15.00;3.20;;;;;;;10.91;49.19;102660.75;7393463;19;20014;-58
2022/10/11 08:10:49;;;;;;;11.60;2.85;;;;;;;10.85;49.50;102666.59;7393357;19;20003;-58
2022/10/11 08:13:16;;;;;;;13.18;3.08;;;;;;;10.95;49.52;102669.16;7394458;19;20014;-59
2022/10/11 08:15:41;;;;;;;12.85;3.80;;;;;;;11.02;49.10;102664.13;7395034;19;20576;-58
2022/10/11 08:18:07;;;;;;;14.38;3.67;;;;;;;11.00;49.09;102663.59;7393326;19;19999;-58
2022/10/11 08:20:32;;;;;;;17.52;3.55;;;;;;;11.14;48.98;102663.66;7395196;19;20007;-58
2022/10/11 08:22:58;;;;;;;14.98;3.65;;;;;;;11.08;49.00;102673.84;7396116;19;20002;-58
2022/10/11 08:25:24;;;;;;;17.70;3.45;;;;;;;11.19;49.29;102670.94;7395491;19;19999;-58
2022/10/11 08:27:49;;;;;;;17.00;3.50;;;;;;;11.23;48.89;102670.03;7393670;19;20009;-58
2022/10/11 08:30:15;;;;;;;15.30;3.88;;;;;;;11.24;48.89;102673.59;7391878;19;20001;-59
2022/10/11 08:32:41;;;;;;;15.55;3.15;;;;;;;11.33;48.73;102669.06;7392800;19;20105;-58
2022/10/11 08:35:07;;;;;;;11.07;2.88;;;;;;;11.48;48.37;102671.50;7395542;19;20016;-58
2022/10/11 08:37:32;;;;;;;13.70;2.72;;;;;;;11.59;48.23;102680.34;7392438;19;20022;-58
2022/10/11 08:39:58;;;;;;;17.55;3.60;;;;;;;11.54;48.29;102672.25;7395035;19;20315;-58
2022/10/11 08:42:36;;;;;;;14.80;2.88;;;;;;;11.64;48.35;102687.66;7393142;19;20343;-58
2022/10/11 08:45:54;;;;;;;17.13;3.45;;;;;;;11.69;48.69;102684.81;7392911;19;19998;-58
2022/10/11 08:48:34;;;;;;;12.50;2.97;;;;;;;11.81;48.21;102687.84;7392433;19;20015;-58
2022/10/11 08:51:01;;;;;;;13.52;2.80;;;;;;;11.81;47.99;102687.84;7392668;19;20066;-58
2022/10/11 08:53:49;;;;;;;17.92;3.10;;;;;;;11.88;47.97;102682.00;7393575;19;19998;-58
2022/10/11 08:56:17;;;;;;;16.33;2.72;;;;;;;12.00;47.81;102686.97;7391771;19;20002;-58
2022/10/11 08:58:53;;;;;;;11.93;2.88;;;;;;;12.03;47.86;102683.63;7389526;19;20013;-58
2022/10/11 09:01:25;;;;;;;18.38;3.83;;;;;;;12.10;47.62;102686.75;7394718;19;20002;-59
2022/10/11 09:03:51;;;;;;;12.95;2.85;;;;;;;12.16;47.42;102690.19;7393206;19;20336;-58
2022/10/11 09:06:35;;;;;;;14.05;3.05;;;;;;;12.17;47.47;102687.16;7393951;19;19995;-58
2022/10/11 09:09:19;;;;;;;12.00;2.58;;;;;;;12.27;47.40;102693.53;7392562;19;20003;-58
2022/10/11 09:11:51;;;;;;;;;;;;;;;12.27;47.07;102699.00;7394526;19;20336;-58
2022/10/11 09:14:46;;;;;;;15.88;2.83;;;;;;;12.33;47.01;102698.56;7393031;19;19919;-58
2022/10/11 09:17:34;;;;;;;13.40;2.75;;;;;;;12.37;47.05;102690.56;7394416;19;19998;-58
2022/10/11 09:20:29;;;;;;;15.48;2.60;;;;;;;12.38;47.06;102697.66;7392655;19;20002;-58
2022/10/11 09:23:19;;;;;;;13.45;2.53;;;;;;;12.43;47.19;102699.50;7394105;19;20074;-58
2022/10/11 09:25:54;;;;;;;11.30;2.60;;;;;;;12.54;47.23;102698.94;7391077;19;20002;-58
2022/10/11 09:28:42;;;;;;;10.63;2.53;;;;;;;12.64;46.96;102702.56;7391576;19;20009;-58
2022/10/11 09:31:10;;;;;;;12.50;2.70;;;;;;;12.61;46.81;102701.25;7390546;19;20019;-58
2022/10/11 09:33:40;;;;;;;12.48;2.25;;;;;;;12.67;46.43;102707.41;7393489;19;20003;-58
2022/10/11 09:36:24;;;;;;;13.55;2.85;;;;;;;12.67;46.65;102704.69;7393260;19;20006;-58
2022/10/11 09:38:58;;;;;;;15.77;2.40;;;;;;;12.62;46.10;102704.81;7386957;19;20062;-58
2022/10/11 09:41:28;;;;;;;17.67;2.38;;;;;;;12.76;46.13;102702.84;7391637;19;20002;-58
2022/10/11 09:43:53;;;;;;;14.98;2.85;;;;;;;12.82;45.99;102704.31;7393148;19;20009;-58
2022/10/11 09:46:23;;;;;;;17.15;3.15;;;;;;;12.85;46.13;102709.19;7392697;19;20003;-58
2022/10/11 09:48:50;;;;;;;12.52;2.47;;;;;;;12.94;46.15;102704.63;7390962;19;19998;-58
2022/10/11 09:51:20;;;;;;;16.80;2.50;;;;;;;12.99;46.01;102697.38;7390894;19;20010;-58
2022/10/11 09:54:05;;;;;;;11.98;2.22;;;;;;;12.99;45.58;102702.88;7392565;19;20011;-58
2022/10/11 09:56:38;;;;;;;17.30;2.70;;;;;;;12.83;45.96;102699.66;7391773;19;20007;-59
2022/10/11 09:59:23;;;;;;;17.40;2.57;;;;;;;13.07;45.45;102699.38;7391746;19;20014;-58
2022/10/11 10:02:16;;;;;;;12.00;2.85;;;;;;;13.24;45.45;102704.97;7392989;19;20009;-58
2022/10/11 10:05:09;;;;;;;14.82;2.83;;;;;;;13.27;45.52;102706.28;7390264;19;20038;-58
2022/10/11 10:07:39;;;;;;;17.38;3.35;;;;;;;13.29;45.35;102707.59;7390528;19;19995;-58
2022/10/11 10:10:27;;;;;;;15.27;2.95;;;;;;;13.38;44.87;102706.84;7391273;19;19998;-58
2022/10/11 10:13:00;;;;;;;18.35;2.50;;;;;;;13.33;44.59;102705.03;7392063;19;20003;-58
2022/10/11 10:15:32;;;;;;;13.88;2.80;;;;;;;13.40;44.29;102704.59;7391618;19;20070;-58
2022/10/11 10:17:58;;;;;;;15.48;2.83;;;;;;;13.45;43.79;102710.72;7387264;19;20442;-58
2022/10/11 10:20:28;;;;;;;14.07;2.80;;;;;;;13.51;43.83;102708.69;7391752;19;20010;-59
2022/10/11 10:22:54;;;;;;;8.90;1.80;;;;;;;13.46;44.33;102717.03;7391014;19;20088;-59
2022/10/11 10:25:33;;;;;;;16.10;2.40;;;;;;;13.56;43.77;102714.03;7392223;19;19999;-59
2022/10/11 10:28:25;;;;;;;14.40;2.42;;;;;;;13.58;43.17;102710.97;7390248;19;20003;-59
2022/10/11 10:30:54;;;;;;;14.63;2.40;;;;;;;13.63;43.61;102714.38;7389366;19;20006;-58
2022/10/11 10:33:22;;;;;;;14.60;2.22;;;;;;;13.64;43.50;102717.91;7390947;19;20332;-58
2022/10/11 10:35:56;;;;;;;18.88;2.65;;;;;;;13.69;43.99;102715.88;7391196;19;20003;-58
2022/10/11 10:38:31;;;;;;;11.25;2.47;;;;;;;13.78;44.06;102717.84;7387384;19;19998;-58
2022/10/11 10:41:01;;;;;;;16.17;2.75;;;;;;;13.85;43.97;102726.44;7389783;19;20030;-58
2022/10/11 10:43:33;;;;;;;18.15;3.40;;;;;;;13.85;43.62;102720.97;7389886;19;20003;-58
2022/10/11 10:46:32;;;;;;;14.02;2.70;;;;;;;13.80;43.79;102718.31;7390638;19;19995;-59
2022/10/11 10:49:24;;;;;;;16.30;2.85;;;;;;;13.85;43.61;102723.69;7390314;19;20006;-58
2022/10/11 10:51:52;;;;;;;16.80;2.85;;;;;;;13.83;43.93;102714.97;7398190;19;19995;-58
2022/10/11 10:54:53;;;;;;;17.52;2.40;;;;;;;13.78;43.63;102726.06;7398238;19;20007;-58
2022/10/11 10:57:55;;;;;;;14.05;2.17;;;;;;;13.86;43.11;102725.31;7397619;19;19994;-59
2022/10/11 11:00:23;;;;;;;15.23;2.88;;;;;;;13.97;43.25;102720.34;7396019;19;20002;-59
2022/10/11 11:02:59;;;;;;;12.80;2.75;;;;;;;14.05;42.55;102720.38;7397912;19;20344;-59
2022/10/11 11:05:47;;;;;;;15.10;3.03;;;;;;;14.13;42.65;102712.47;7397918;19;20002;-59
2022/10/11 11:08:37;;;;;;;16.75;3.30;;;;;;;14.17;42.24;102722.50;7395641;19;20002;-59
2022/10/11 11:11:26;;;;;;;16.08;2.35;;;;;;;14.27;42.08;102718.66;7394930;19;20006;-58
2022/10/11 11:14:01;;;;;;;13.23;2.55;;;;;;;14.19;42.20;102720.25;7397390;19;19994;-59
2022/10/11 11:16:31;;;;;;;16.15;2.30;;;;;;;14.32;42.62;102714.94;7395297;19;19998;-58
2022/10/11 11:19:01;;;;;;;14.52;2.70;;;;;;;14.42;42.36;102704.44;7394877;19;20002;-58
2022/10/11 11:21:26;;;;;;;11.40;2.25;;;;;;;14.50;42.51;102708.34;7396862;19;20027;-58
2022/10/11 11:24:12;;;;;;;14.55;2.70;;;;;;;14.47;41.62;102706.22;7396635;19;19995;-58
2022/10/11 11:26:51;;;;;;;11.13;2.22;;;;;;;14.54;42.15;102705.75;7396587;19;19994;-58
2022/10/11 11:29:25;;;;;;;12.18;2.15;;;;;;;14.54;42.29;102705.75;7394289;19;19997;-58
2022/10/11 11:32:25;;;;;;;22.75;3.05;;;;;;;14.47;41.80;102702.69;7394197;19;20095;-58
2022/10/11 11:35:01;;;;;;;13.82;2.50;;;;;;;14.43;41.95;102697.84;7396760;19;20042;-59